Time;durP1;ratioP1;P1;durP2;ratioP2;P2;SDS_P1;SDS_P2;PMS_P1;PMS_P2;Temp;Humidity;BMP_temperature;BMP_pressure;BME280_temperature;BME280_humidity;BME280_pressure;Samples;Min_cycle;Max_cycle;Signal;HPM_P1;HPM_P2
2021/01/03 00:00:22;;;;;;;35.58;20.77;;;;;;;6.04;64.29;100041.13;5030782;28;19925;-65
2021/01/03 00:02:50;;;;;;;34.55;21.13;;;;;;;6.05;64.29;100034.50;5032550;28;20478;-65
2021/01/03 00:05:19;;;;;;;31.85;20.88;;;;;;;6.06;64.83;100041.66;5017319;28;20471;-65
2021/01/03 00:07:45;;;;;;;31.45;20.23;;;;;;;6.06;64.49;100033.38;5026051;28;20060;-64
2021/01/03 00:10:13;;;;;;;33.80;20.98;;;;;;;6.07;64.08;100024.78;5012743;28;20060;-65
2021/01/03 00:12:43;;;;;;;34.10;21.75;;;;;;;6.05;64.43;100024.25;5012289;28;20058;-65
2021/01/03 00:15:16;;;;;;;33.22;20.50;;;;;;;6.07;64.19;100024.78;5012145;28;20061;-66
2021/01/03 00:17:43;;;;;;;31.83;20.67;;;;;;;6.08;64.14;100026.41;5025410;28;20053;-66
2021/01/03 00:20:14;;;;;;;34.00;21.02;;;;;;;6.09;64.33;100024.50;5032117;28;20399;-66
2021/01/03 00:22:41;;;;;;;39.50;22.08;;;;;;;6.06;64.41;100020.38;5031962;28;20068;-66
2021/01/03 00:25:12;;;;;;;36.47;22.67;;;;;;;6.06;64.47;100017.59;5018079;28;20061;-66
2021/01/03 00:27:42;;;;;;;33.55;22.30;;;;;;;6.08;64.07;100025.59;5012757;28;20491;-66
2021/01/03 00:30:10;;;;;;;;;;;;;;;6.09;64.23;100028.09;5012782;28;20061;-66
2021/01/03 00:32:37;;;;;;;33.38;21.40;;;;;;;6.05;64.38;100023.44;5012325;28;19925;-66
2021/01/03 00:35:06;;;;;;;34.28;21.60;;;;;;;6.03;64.34;100034.78;5012764;28;20514;-66
2021/01/03 00:37:33;;;;;;;32.90;22.27;;;;;;;6.05;64.15;100035.31;5012080;28;20053;-66
2021/01/03 00:40:00;;;;;;;32.50;20.83;;;;;;;6.05;64.30;100021.50;5012590;28;20053;-66
2021/01/03 00:42:27;;;;;;;32.97;21.38;;;;;;;6.06;64.35;100022.31;5013439;28;20399;-66
2021/01/03 00:44:54;;;;;;;35.03;21.95;;;;;;;6.04;63.96;100019.84;5015948;28;20057;-66
2021/01/03 00:47:21;;;;;;;32.78;20.17;;;;;;;6.05;64.07;100015.16;5023333;28;20060;-66
2021/01/03 00:49:48;;;;;;;30.92;20.15;;;;;;;6.02;63.67;100011.00;5035878;28;20458;-65
2021/01/03 00:52:15;;;;;;;31.40;20.38;;;;;;;6.04;64.00;100013.50;5036245;28;20053;-65
2021/01/03 00:54:42;;;;;;;36.75;23.13;;;;;;;6.01;64.02;100003.84;5036357;28;20060;-65
2021/01/03 00:57:08;;;;;;;31.58;20.17;;;;;;;6.01;63.98;100003.84;5025639;28;20053;-65
2021/01/03 00:59:35;;;;;;;36.03;21.05;;;;;;;5.99;64.13;100008.84;5015950;28;20056;-65
2021/01/03 01:02:03;;;;;;;31.60;20.58;;;;;;;5.97;63.81;100007.50;5016158;28;20076;-65
2021/01/03 01:04:30;;;;;;;34.67;20.98;;;;;;;5.97;63.72;100024.91;5016366;28;20406;-65
2021/01/03 01:06:57;;;;;;;34.10;20.95;;;;;;;5.96;63.90;100028.78;5015967;28;20544;-66
2021/01/03 01:09:24;;;;;;;33.58;21.17;;;;;;;5.98;63.85;100025.72;5015995;28;20075;-65
2021/01/03 01:11:53;;;;;;;33.85;20.40;;;;;;;5.92;64.05;100033.22;5016131;28;20058;-65
2021/01/03 01:14:20;;;;;;;33.37;20.57;;;;;;;5.86;64.09;100023.38;5015645;28;20057;-65
2021/01/03 01:16:47;;;;;;;31.80;20.13;;;;;;;5.86;64.07;100023.38;5015491;28;20068;-65
2021/01/03 01:19:15;;;;;;;31.73;19.13;;;;;;;5.89;63.57;100031.06;5015811;28;20060;-65
2021/01/03 01:21:41;;;;;;;28.00;18.42;;;;;;;5.87;63.53;100025.00;5015546;28;20045;-65
2021/01/03 01:24:09;;;;;;;28.92;18.50;;;;;;;5.86;63.31;100034.41;5021695;28;20049;-65
2021/01/03 01:26:36;;;;;;;31.58;19.05;;;;;;;5.85;63.17;100033.56;5015560;28;20541;-65
2021/01/03 01:29:06;;;;;;;27.80;17.40;;;;;;;5.89;62.88;100031.06;5015484;28;20402;-65
2021/01/03 01:31:33;;;;;;;28.50;18.55;;;;;;;5.86;62.73;100037.19;5015250;28;20061;-65
2021/01/03 01:34:00;;;;;;;26.50;17.20;;;;;;;5.84;62.59;100034.72;5015276;28;20550;-65
2021/01/03 01:36:27;;;;;;;25.50;16.75;;;;;;;5.82;62.80;100039.72;5015202;28;20061;-65
2021/01/03 01:38:54;;;;;;;26.17;16.88;;;;;;;5.84;62.89;100042.19;5015444;28;20057;-65
2021/01/03 01:41:21;;;;;;;25.30;17.00;;;;;;;5.85;62.84;100033.56;5014761;28;20053;-65
2021/01/03 01:43:48;;;;;;;23.90;16.35;;;;;;;5.84;62.77;100028.38;5015127;28;20418;-65
2021/01/03 01:46:18;;;;;;;25.10;15.70;;;;;;;5.85;62.44;100030.00;5015170;28;20054;-65
2021/01/03 01:48:47;;;;;;;27.92;17.88;;;;;;;5.86;62.15;100029.72;5015288;28;20073;-65
2021/01/03 01:51:20;;;;;;;23.90;15.65;;;;;;;5.90;62.00;100032.72;5015000;28;20057;-65
2021/01/03 01:53:55;;;;;;;23.08;15.32;;;;;;;5.84;61.92;100031.94;5015178;28;20060;-65
2021/01/03 01:56:26;;;;;;;24.05;15.25;;;;;;;5.84;61.79;100034.72;5014750;28;20054;-65
2021/01/03 01:58:56;;;;;;;26.15;17.35;;;;;;;5.80;61.71;100022.59;5015101;28;20057;-65
2021/01/03 02:01:30;;;;;;;24.13;16.05;;;;;;;5.80;62.23;100030.06;5014788;28;20060;-65
2021/01/03 02:04:01;;;;;;;23.45;16.15;;;;;;;5.79;62.22;100026.44;5014712;28;20399;-65
2021/01/03 02:06:30;;;;;;;26.02;17.02;;;;;;;5.79;62.88;100028.41;5014801;28;20072;-65
2021/01/03 02:08:59;;;;;;;;;;;;;;;5.79;63.00;100023.69;5015428;28;20517;-65
2021/01/03 02:11:28;;;;;;;20.95;13.60;;;;;;;5.77;62.30;100019.59;5015231;28;20417;-65
2021/01/03 02:13:57;;;;;;;22.52;14.43;;;;;;;5.76;62.48;100023.47;5014746;28;20061;-65
2021/01/03 02:16:27;;;;;;;21.13;13.88;;;;;;;5.74;62.35;100011.91;5014504;28;20069;-65
2021/01/03 02:18:54;;;;;;;22.10;14.55;;;;;;;5.74;62.26;100009.94;5014446;28;20388;-65
2021/01/03 02:21:27;;;;;;;23.00;14.88;;;;;;;5.77;61.87;100019.59;5014388;28;20056;-65
2021/01/03 02:24:12;;;;;;;20.98;14.40;;;;;;;5.80;62.42;100019.00;5019458;28;20498;-65
2021/01/03 02:26:43;;;;;;;21.67;14.85;;;;;;;5.80;62.26;100019.00;5013942;28;20065;-65
2021/01/03 02:29:13;;;;;;;26.02;15.52;;;;;;;5.80;62.54;100019.81;5014399;28;20060;-65
2021/01/03 02:31:42;;;;;;;26.30;15.27;;;;;;;5.81;61.84;100026.16;5014190;28;20053;-66
2021/01/03 02:34:11;;;;;;;19.20;12.98;;;;;;;5.80;61.64;100022.59;5014489;28;20046;-66
2021/01/03 02:36:40;;;;;;;20.35;13.00;;;;;;;5.82;61.75;100017.59;5014126;28;20058;-66
2021/01/03 02:39:15;;;;;;;20.58;13.27;;;;;;;5.83;61.46;100019.22;5016051;28;20061;-66
2021/01/03 02:41:42;;;;;;;19.08;12.73;;;;;;;5.82;61.35;100016.78;5014167;28;20503;-66
2021/01/03 02:44:09;;;;;;;16.52;11.70;;;;;;;5.83;60.88;100024.75;5015255;28;20042;-65
2021/01/03 02:46:38;;;;;;;22.92;13.38;;;;;;;5.83;61.05;100019.22;5014114;28;20046;-66
2021/01/03 02:49:05;;;;;;;17.40;12.45;;;;;;;5.85;61.37;100013.41;5013930;28;20054;-66
2021/01/03 02:51:34;;;;;;;20.42;13.75;;;;;;;5.83;61.41;100019.22;5013586;28;20057;-66
2021/01/03 02:54:01;;;;;;;18.40;12.60;;;;;;;5.85;60.95;100010.66;5013825;28;20058;-66
2021/01/03 02:56:27;;;;;;;20.45;12.60;;;;;;;5.85;60.81;100013.41;5013859;28;20418;-66
2021/01/03 02:58:55;;;;;;;16.80;11.82;;;;;;;5.79;60.22;100004.34;5013955;28;20058;-66
2021/01/03 03:01:22;;;;;;;18.55;12.45;;;;;;;5.79;60.98;100001.59;5013778;28;20075;-65
2021/01/03 03:03:49;;;;;;;17.63;12.10;;;;;;;5.81;60.49;100004.06;5013711;28;20058;-66
2021/01/03 03:06:16;;;;;;;18.42;11.60;;;;;;;5.82;60.06;100005.72;5012625;28;20054;-66
2021/01/03 03:08:43;;;;;;;15.13;10.95;;;;;;;5.81;59.96;99995.78;5013507;28;20057;-66
2021/01/03 03:11:10;;;;;;;17.30;11.70;;;;;;;5.83;60.25;99997.13;5013446;28;20054;-66
2021/01/03 03:13:37;;;;;;;16.83;11.18;;;;;;;5.81;59.84;100002.13;5014572;28;20057;-66
2021/01/03 03:16:05;;;;;;;16.17;11.02;;;;;;;5.81;59.96;99996.59;5013700;28;20061;-66
2021/01/03 03:18:32;;;;;;;15.65;11.35;;;;;;;5.82;59.71;100000.19;5013145;28;20060;-66
2021/01/03 03:20:59;;;;;;;17.23;11.45;;;;;;;5.83;60.11;99991.59;5013414;28;20062;-67
2021/01/03 03:23:25;;;;;;;14.77;10.68;;;;;;;5.82;59.44;99995.47;5018934;28;20053;-65
2021/01/03 03:25:52;;;;;;;14.63;10.45;;;;;;;5.82;59.58;99984.44;5032986;28;20054;-65
2021/01/03 03:28:19;;;;;;;14.27;10.18;;;;;;;5.78;59.26;99988.09;5033222;28;20049;-65
2021/01/03 03:30:46;;;;;;;15.32;11.18;;;;;;;5.79;59.53;99979.47;5032782;28;20057;-66
2021/01/03 03:33:14;;;;;;;14.98;10.40;;;;;;;5.78;59.90;99977.03;5032235;28;20061;-66
2021/01/03 03:35:41;;;;;;;15.35;10.40;;;;;;;5.79;59.64;99978.66;5033078;28;20053;-66
2021/01/03 03:38:08;;;;;;;16.70;10.10;;;;;;;5.79;59.60;99971.19;5031446;28;20054;-66
2021/01/03 03:40:39;;;;;;;16.85;10.65;;;;;;;5.81;59.32;99977.25;5013092;28;20050;-66
2021/01/03 03:43:07;;;;;;;15.60;10.40;;;;;;;5.82;59.83;99975.31;5013108;28;20548;-66
2021/01/03 03:45:34;;;;;;;15.18;10.18;;;;;;;5.81;59.35;99976.44;5013027;28;20053;-66
2021/01/03 03:48:01;;;;;;;15.48;10.77;;;;;;;5.84;59.87;99978.63;5013432;28;20054;-66
2021/01/03 03:50:29;;;;;;;16.77;10.23;;;;;;;5.85;58.90;99974.72;5013112;28;20425;-65
2021/01/03 03:52:56;;;;;;;15.70;11.07;;;;;;;5.85;58.94;99977.47;5013451;28;20406;-66
2021/01/03 03:55:25;;;;;;;13.82;9.55;;;;;;;5.86;59.07;99976.38;5013920;28;20403;-66
2021/01/03 03:57:52;;;;;;;17.73;11.13;;;;;;;5.87;59.35;99969.72;5012763;28;20057;-66
2021/01/03 04:00:22;;;;;;;17.08;10.40;;;;;;;5.86;59.07;99968.91;5013273;28;20061;-66
2021/01/03 04:02:49;;;;;;;17.15;10.63;;;;;;;5.86;58.30;99973.63;5025566;28;20057;-66
2021/01/03 04:05:18;;;;;;;15.95;10.63;;;;;;;5.85;58.82;99966.44;5032582;28;20050;-66
2021/01/03 04:07:46;;;;;;;14.25;10.07;;;;;;;5.84;59.13;99967.56;5032731;28;20060;-66
2021/01/03 04:10:14;;;;;;;14.35;9.95;;;;;;;5.86;58.96;99962.56;5031991;28;20371;-66
2021/01/03 04:12:41;;;;;;;12.48;9.40;;;;;;;5.84;59.20;99964.78;5032622;28;20061;-66
2021/01/03 04:15:12;;;;;;;12.05;8.57;;;;;;;5.86;59.09;99968.91;5032629;28;20208;-66
2021/01/03 04:17:39;;;;;;;13.73;9.35;;;;;;;5.88;58.50;99961.13;5033680;28;20072;-66
2021/01/03 04:20:07;;;;;;;14.20;9.65;;;;;;;5.90;58.65;99974.66;5036595;28;20502;-65
2021/01/03 04:22:37;;;;;;;13.48;9.57;;;;;;;5.88;58.85;99968.63;5036248;28;20407;-65
2021/01/03 04:25:06;;;;;;;13.63;10.67;;;;;;;5.90;59.15;99966.38;5017094;28;20057;-65
2021/01/03 04:27:32;;;;;;;14.13;10.03;;;;;;;5.92;58.93;99971.59;5016846;28;20472;-65
2021/01/03 04:29:59;;;;;;;13.10;9.73;;;;;;;5.91;58.86;99973.53;5016775;28;20054;-65
2021/01/03 04:32:26;;;;;;;14.60;10.07;;;;;;;5.89;58.52;99973.81;5016064;28;20050;-65
2021/01/03 04:34:53;;;;;;;18.85;11.90;;;;;;;5.93;59.22;99979.59;5016548;28;20506;-65
2021/01/03 04:37:20;;;;;;;15.85;10.30;;;;;;;5.92;59.08;99977.13;5016413;28;20507;-65
2021/01/03 04:39:47;;;;;;;15.32;11.05;;;;;;;5.91;58.65;99970.78;5016493;28;20050;-65
2021/01/03 04:42:18;;;;;;;14.88;10.63;;;;;;;5.89;59.23;99979.34;5017042;28;20164;-65
2021/01/03 04:44:46;;;;;;;17.35;11.20;;;;;;;5.93;59.27;99982.38;5016427;28;20406;-64
2021/01/03 04:47:25;;;;;;;16.42;11.02;;;;;;;5.95;58.97;99987.63;5016025;28;20046;-64
2021/01/03 04:49:58;;;;;;;17.95;12.23;;;;;;;5.95;59.07;99982.09;5016182;28;20383;-65
2021/01/03 04:52:59;;;;;;;16.80;11.35;;;;;;;5.92;59.63;99982.66;5015942;28;20065;-65
2021/01/03 04:55:27;;;;;;;14.65;10.82;;;;;;;5.94;59.63;99988.69;5016563;28;20053;-65
2021/01/03 04:58:06;;;;;;;17.85;12.48;;;;;;;5.93;59.84;99984.31;5016127;28;20080;-65
2021/01/03 05:00:36;;;;;;;19.25;12.27;;;;;;;5.92;59.56;99983.47;5015461;28;20053;-65
2021/01/03 05:03:41;;;;;;;16.98;11.52;;;;;;;5.92;59.59;99982.66;5015634;28;20057;-65
2021/01/03 05:06:13;;;;;;;18.17;12.75;;;;;;;5.86;60.28;99979.97;5015804;28;20057;-65
2021/01/03 05:08:43;;;;;;;18.67;12.73;;;;;;;5.86;60.03;99982.72;5016383;28;20050;-65
2021/01/03 05:11:14;;;;;;;20.02;13.27;;;;;;;5.86;60.25;99979.97;5015819;28;20054;-65
2021/01/03 05:13:46;;;;;;;19.92;13.23;;;;;;;5.90;59.97;99974.66;5015564;28;20054;-65
2021/01/03 05:16:15;;;;;;;20.50;13.52;;;;;;;5.91;60.27;99981.84;5015775;28;20054;-65
2021/01/03 05:18:42;;;;;;;18.95;12.52;;;;;;;5.93;61.10;99981.53;5015582;28;20050;-65
2021/01/03 05:21:09;;;;;;;17.95;12.93;;;;;;;5.94;60.49;99985.94;5015767;28;20058;-65
2021/01/03 05:23:38;;;;;;;19.35;12.50;;;;;;;5.95;60.07;99982.91;5018773;28;20045;-65
2021/01/03 05:26:06;;;;;;;17.80;11.73;;;;;;;5.94;60.30;99985.94;5015862;28;20054;-65
2021/01/03 05:28:34;;;;;;;18.05;12.57;;;;;;;5.95;59.98;99982.91;5014961;28;20402;-65
2021/01/03 05:31:15;;;;;;;19.25;12.30;;;;;;;5.95;59.94;99988.44;5015296;28;20065;-65
2021/01/03 05:33:55;;;;;;;16.17;11.45;;;;;;;5.96;59.68;99987.31;5015223;28;20054;-65
2021/01/03 05:36:35;;;;;;;18.15;12.00;;;;;;;5.94;59.94;99981.22;5015235;28;20054;-65
2021/01/03 05:39:10;;;;;;;16.55;11.43;;;;;;;5.93;60.12;99985.13;5015366;28;20046;-65
2021/01/03 05:41:57;;;;;;;17.80;11.48;;;;;;;5.95;59.83;99991.22;5015788;28;20053;-65
2021/01/03 05:44:27;;;;;;;17.40;11.90;;;;;;;5.93;60.01;99990.66;5015544;28;20053;-65
2021/01/03 05:47:05;;;;;;;16.77;10.85;;;;;;;5.94;59.68;99997.81;5015188;28;20045;-65
2021/01/03 05:49:33;;;;;;;16.83;10.98;;;;;;;5.94;59.37;99995.03;5015544;28;20057;-65
2021/01/03 05:52:12;;;;;;;15.10;10.68;;;;;;;5.97;59.34;99990.94;5014770;28;20069;-65
2021/01/03 05:54:39;;;;;;;16.27;11.20;;;;;;;5.95;59.16;99990.41;5015053;28;20493;-65
2021/01/03 05:57:07;;;;;;;14.13;9.85;;;;;;;5.95;59.06;99996.75;5014432;28;20050;-65
2021/01/03 05:59:36;;;;;;;15.43;10.20;;;;;;;5.95;59.12;99995.94;5015414;28;20055;-65
2021/01/03 06:02:10;;;;;;;14.40;9.55;;;;;;;5.96;58.84;100001.13;5015232;28;20050;-65
2021/01/03 06:04:37;;;;;;;13.40;8.65;;;;;;;5.92;58.40;99997.28;5014799;28;20065;-65
2021/01/03 06:07:24;;;;;;;12.23;8.60;;;;;;;5.93;57.52;100000.91;5014447;28;20061;-65
2021/01/03 06:09:50;;;;;;;11.98;9.13;;;;;;;5.89;57.87;100012.53;5015431;28;20064;-65
2021/01/03 06:12:20;;;;;;;10.82;7.95;;;;;;;5.86;57.83;100010.38;5014566;28;20057;-65
2021/01/03 06:14:50;;;;;;;11.68;8.00;;;;;;;5.84;57.25;100009.03;5014598;28;20407;-65
2021/01/03 06:17:24;;;;;;;11.00;7.55;;;;;;;5.81;57.83;100012.34;5014080;28;20046;-65
2021/01/03 06:19:54;;;;;;;11.57;7.85;;;;;;;5.82;57.76;100011.25;5030562;28;20053;-65
2021/01/03 06:22:38;;;;;;;11.25;8.10;;;;;;;5.83;57.83;100007.34;5033874;28;20414;-65
2021/01/03 06:25:18;;;;;;;10.68;7.25;;;;;;;5.85;57.73;100005.13;5016107;28;20058;-65
2021/01/03 06:27:45;;;;;;;;;;;;;;;5.82;57.58;100012.06;5014943;28;20054;-65
2021/01/03 06:30:13;;;;;;;10.80;7.50;;;;;;;5.81;57.29;100018.69;5014168;28;20298;-65
2021/01/03 06:33:12;;;;;;;9.30;6.40;;;;;;;5.81;57.22;100015.13;5013777;28;20058;-65
2021/01/03 06:35:42;;;;;;;9.13;6.55;;;;;;;5.81;56.93;100018.69;5011550;28;20049;-65
2021/01/03 06:38:14;;;;;;;9.70;7.05;;;;;;;5.85;56.95;100017.00;5014439;28;20054;-65
2021/01/03 06:40:46;;;;;;;12.60;6.28;;;;;;;5.87;55.92;100020.28;5014588;28;20053;-65
2021/01/03 06:43:30;;;;;;;7.85;5.82;;;;;;;5.87;56.59;100020.28;5014718;28;20057;-65
2021/01/03 06:46:36;;;;;;;8.55;6.35;;;;;;;5.86;55.98;100024.19;5014314;28;20045;-65
2021/01/03 06:49:18;;;;;;;7.63;5.38;;;;;;;5.89;56.24;100025.53;5014649;28;20168;-65
2021/01/03 06:52:02;;;;;;;8.23;6.15;;;;;;;5.86;55.86;100024.19;5014668;28;20053;-65
2021/01/03 06:54:54;;;;;;;8.32;5.78;;;;;;;5.85;55.85;100018.94;5013939;28;20054;-65
2021/01/03 06:57:56;;;;;;;9.70;6.78;;;;;;;5.87;56.17;100019.47;5014075;28;20064;-65
2021/01/03 07:00:25;;;;;;;8.70;5.97;;;;;;;5.86;56.14;100029.72;5013645;28;20049;-65
2021/01/03 07:02:55;;;;;;;8.55;6.45;;;;;;;5.88;56.21;100018.38;5013933;28;20072;-65
2021/01/03 07:05:24;;;;;;;8.10;6.15;;;;;;;5.86;55.85;100026.13;5032718;28;20056;-66
2021/01/03 07:08:02;;;;;;;8.03;5.93;;;;;;;5.86;55.47;100013.13;5033551;28;20498;-65
2021/01/03 07:10:40;;;;;;;8.35;6.03;;;;;;;5.90;55.73;100013.38;5033683;28;20053;-65
2021/01/03 07:13:38;;;;;;;8.50;6.30;;;;;;;5.93;55.42;100023.81;5033709;28;20478;-65
2021/01/03 07:16:10;;;;;;;7.80;6.05;;;;;;;5.90;55.77;100019.72;5029032;28;20049;-66
2021/01/03 07:18:48;;;;;;;7.63;5.88;;;;;;;5.85;55.53;100016.19;5033784;28;20140;-66
2021/01/03 07:21:33;;;;;;;8.80;6.03;;;;;;;5.90;57.53;100021.66;5033832;28;20053;-66
2021/01/03 07:24:30;;;;;;;9.48;5.93;;;;;;;5.91;55.97;100015.00;5028900;28;20511;-66
2021/01/03 07:27:17;;;;;;;7.60;5.82;;;;;;;5.91;55.09;100015.00;5014413;28;20479;-66
2021/01/03 07:29:51;;;;;;;8.32;6.07;;;;;;;5.89;56.04;100012.53;5014005;28;20407;-66
2021/01/03 07:32:19;;;;;;;7.65;5.40;;;;;;;5.89;55.91;100014.47;5013098;28;20348;-66
2021/01/03 07:34:50;;;;;;;8.05;5.90;;;;;;;5.96;55.91;100016.91;5013478;28;20434;-65
2021/01/03 07:37:20;;;;;;;7.85;5.68;;;;;;;6.01;55.68;100017.69;5019166;28;20486;-66
2021/01/03 07:39:58;;;;;;;9.10;6.45;;;;;;;6.03;55.53;100020.97;5014405;28;20057;-65
2021/01/03 07:42:27;;;;;;;8.95;7.35;;;;;;;6.05;55.40;100020.69;5013405;28;20057;-65
2021/01/03 07:44:55;;;;;;;9.00;6.77;;;;;;;6.03;55.18;100032.03;5012789;28;20053;-65
2021/01/03 07:47:38;;;;;;;9.02;6.57;;;;;;;6.04;54.94;100033.66;5012911;28;20053;-65
2021/01/03 07:50:32;;;;;;;9.93;6.88;;;;;;;6.06;55.13;100033.38;5013169;28;20058;-65
2021/01/03 07:53:17;;;;;;;8.77;6.78;;;;;;;6.03;54.96;100037.56;5012285;28;20058;-66
2021/01/03 07:55:45;;;;;;;8.82;6.68;;;;;;;5.99;55.40;100035.69;5031546;28;20057;-65
2021/01/03 07:58:17;;;;;;;9.10;6.97;;;;;;;6.00;55.05;100043.66;5032534;28;20060;-65
2021/01/03 08:00:48;;;;;;;9.70;7.43;;;;;;;5.97;55.38;100040.69;5031275;28;20053;-65
2021/01/03 08:03:19;;;;;;;10.73;7.05;;;;;;;6.00;55.24;100053.91;5032393;28;20053;-65
2021/01/03 08:05:46;;;;;;;7.95;6.20;;;;;;;6.02;55.08;100052.47;5032617;28;20080;-65
2021/01/03 08:08:16;;;;;;;14.00;7.43;;;;;;;6.03;54.63;100045.84;5032198;28;20049;-65
2021/01/03 08:10:45;;;;;;;8.60;6.82;;;;;;;6.00;55.12;100057.47;5012752;28;20050;-65
2021/01/03 08:13:16;;;;;;;7.25;6.15;;;;;;;6.00;54.83;100051.13;5012944;28;20053;-65
2021/01/03 08:15:43;;;;;;;8.55;7.00;;;;;;;6.00;54.52;100049.19;5012656;28;20418;-66
2021/01/03 08:18:15;;;;;;;8.27;6.95;;;;;;;5.96;54.24;100056.44;5013485;28;20050;-65
2021/01/03 08:20:41;;;;;;;10.57;7.90;;;;;;;5.98;54.50;100054.19;5030018;28;20056;-65
2021/01/03 08:23:17;;;;;;;9.93;7.60;;;;;;;5.99;54.60;100049.50;5032309;28;20061;-65
2021/01/03 08:25:47;;;;;;;8.95;6.90;;;;;;;6.00;54.30;100051.13;5012926;28;20058;-65
2021/01/03 08:28:18;;;;;;;9.05;7.30;;;;;;;6.01;54.46;100052.81;5012442;28;20061;-65
2021/01/03 08:30:46;;;;;;;8.98;6.53;;;;;;;6.01;54.56;100058.34;5012504;28;20061;-65
2021/01/03 08:33:19;;;;;;;7.60;6.78;;;;;;;6.01;54.59;100053.63;5012930;28;20058;-65
2021/01/03 08:35:46;;;;;;;6.97;5.95;;;;;;;6.03;54.28;100056.91;5013034;28;20050;-65
2021/01/03 08:38:13;;;;;;;9.45;7.25;;;;;;;6.05;54.19;100062.16;5012168;28;20061;-65
2021/01/03 08:40:42;;;;;;;8.57;6.95;;;;;;;6.06;54.01;100061.84;5031682;28;20057;-65
2021/01/03 08:43:15;;;;;;;7.78;6.65;;;;;;;6.08;53.85;100054.06;5031895;28;20057;-65
2021/01/03 08:45:44;;;;;;;6.93;6.22;;;;;;;6.12;53.59;100059.84;5031905;28;20057;-65
2021/01/03 08:48:13;;;;;;;8.27;6.40;;;;;;;6.11;53.63;100063.75;5030321;28;20494;-65
2021/01/03 08:50:41;;;;;;;7.60;6.53;;;;;;;6.14;53.41;100056.78;5025853;28;20057;-65
2021/01/03 08:53:11;;;;;;;7.13;5.80;;;;;;;6.11;53.51;100058.22;5019915;28;20057;-65
2021/01/03 08:55:39;;;;;;;8.68;6.10;;;;;;;6.12;53.64;100064.56;5025145;28;20375;-65
2021/01/03 08:58:11;;;;;;;8.27;7.35;;;;;;;6.13;53.40;100055.94;5027506;28;20491;-65
2021/01/03 09:00:40;;;;;;;7.78;6.72;;;;;;;6.10;53.43;100051.03;5025092;28;20486;-65
2021/01/03 09:03:15;;;;;;;8.77;6.82;;;;;;;6.10;53.45;100054.59;5028301;28;20056;-65
2021/01/03 09:05:42;;;;;;;7.50;6.57;;;;;;;6.13;53.27;100060.66;5034436;28;20422;-65
2021/01/03 09:08:13;;;;;;;7.18;6.47;;;;;;;6.14;53.72;100073.38;5032784;28;20509;-65
2021/01/03 09:10:42;;;;;;;6.82;6.10;;;;;;;6.17;53.32;100062.53;5034198;28;20049;-65
2021/01/03 09:13:18;;;;;;;7.22;6.10;;;;;;;6.19;53.46;100073.31;5035488;28;20402;-66
2021/01/03 09:15:53;;;;;;;8.07;6.28;;;;;;;6.19;52.99;100070.53;5031595;28;20491;-66
2021/01/03 09:18:26;;;;;;;6.50;5.90;;;;;;;6.20;53.54;100074.97;5015775;28;20054;-66
2021/01/03 09:20:56;;;;;;;7.13;6.13;;;;;;;6.24;53.69;100070.50;5026836;28;20053;-66
2021/01/03 09:23:25;;;;;;;6.55;5.85;;;;;;;6.25;53.44;100081.25;5030955;28;20496;-66
2021/01/03 09:25:55;;;;;;;6.00;5.40;;;;;;;6.28;53.07;100071.56;5032858;28;20053;-66
2021/01/03 09:28:25;;;;;;;8.85;7.15;;;;;;;6.29;52.67;100082.31;5033924;28;20054;-66
2021/01/03 09:31:00;;;;;;;7.47;6.30;;;;;;;6.29;52.88;100071.25;5035158;28;20406;-66
2021/01/03 09:33:27;;;;;;;6.55;5.55;;;;;;;6.31;52.86;100084.78;5031338;28;20049;-66
2021/01/03 09:36:12;;;;;;;7.07;6.38;;;;;;;6.31;52.56;100087.53;5034284;28;20056;-66
2021/01/03 09:39:23;;;;;;;8.77;6.38;;;;;;;6.35;52.82;100085.84;5033178;28;20065;-66
2021/01/03 09:42:18;;;;;;;7.53;6.25;;;;;;;6.38;52.79;100082.47;5014378;28;20049;-66
2021/01/03 09:44:53;;;;;;;7.13;6.20;;;;;;;6.34;52.92;100086.97;5006493;28;20050;-66
2021/01/03 09:47:23;;;;;;;6.45;5.53;;;;;;;6.38;52.76;100093.53;5034774;28;20475;-65
2021/01/03 09:49:53;;;;;;;5.97;5.03;;;;;;;6.39;52.44;100089.66;5027989;28;20046;-66
2021/01/03 09:52:26;;;;;;;6.53;5.80;;;;;;;6.41;52.79;100087.41;5034241;28;20418;-66
2021/01/03 09:55:07;;;;;;;7.15;5.82;;;;;;;6.47;52.51;100080.72;5032945;28;20065;-66
2021/01/03 09:57:37;;;;;;;7.32;5.68;;;;;;;6.52;52.83;100087.28;5032915;28;20057;-66
2021/01/03 10:00:09;;;;;;;8.02;6.07;;;;;;;6.57;52.17;100095.50;5025575;28;20060;-66
2021/01/03 10:02:36;;;;;;;7.28;6.15;;;;;;;6.55;51.76;100097.75;5030153;28;20056;-66
2021/01/03 10:05:05;;;;;;;6.97;6.00;;;;;;;6.59;52.23;100093.28;5032483;28;20068;-65
2021/01/03 10:07:32;;;;;;;8.55;7.20;;;;;;;6.59;51.73;100094.09;5034404;28;20438;-65
2021/01/03 10:10:00;;;;;;;13.02;11.93;;;;;;;6.59;52.26;100090.50;5032169;28;20045;-65
2021/01/03 10:12:32;;;;;;;6.57;5.88;;;;;;;6.63;51.75;100083.25;5034435;28;20060;-66
2021/01/03 10:15:25;;;;;;;7.45;5.97;;;;;;;6.69;51.71;100077.34;5031517;28;20041;-65
2021/01/03 10:17:57;;;;;;;10.23;7.88;;;;;;;6.69;51.76;100080.13;5032493;28;20482;-65
2021/01/03 10:20:45;;;;;;;7.32;6.18;;;;;;;6.68;52.16;100083.22;5029457;28;20065;-65
2021/01/03 10:23:32;;;;;;;5.93;5.20;;;;;;;6.70;52.14;100078.19;5032647;28;20466;-65
2021/01/03 10:25:59;;;;;;;8.43;6.45;;;;;;;6.75;51.70;100082.84;5023878;28;20041;-65
2021/01/03 10:28:26;;;;;;;6.88;5.88;;;;;;;6.71;52.15;100079.81;5033418;28;20398;-65
2021/01/03 10:30:53;;;;;;;8.27;6.30;;;;;;;6.74;51.54;100079.25;5032970;28;20102;-65
2021/01/03 10:33:21;;;;;;;6.75;5.78;;;;;;;6.74;51.74;100081.16;5031401;28;20062;-66
2021/01/03 10:35:48;;;;;;;7.35;6.05;;;;;;;6.74;52.19;100081.16;5032098;28;20049;-65
2021/01/03 10:38:14;;;;;;;8.27;6.10;;;;;;;6.71;51.92;100077.88;5028500;28;20069;-65
2021/01/03 10:40:41;;;;;;;10.63;5.82;;;;;;;6.74;52.14;100083.94;5033452;28;20163;-65
2021/01/03 10:43:08;;;;;;;6.78;5.30;;;;;;;6.75;52.09;100088.38;5030323;28;20057;-64
2021/01/03 10:45:35;;;;;;;6.18;5.05;;;;;;;6.69;52.34;100088.41;5033436;28;20053;-65
2021/01/03 10:48:04;;;;;;;5.97;5.07;;;;;;;6.74;52.37;100081.16;5030956;28;20060;-65
2021/01/03 10:50:31;;;;;;;5.95;4.93;;;;;;;6.74;51.96;100075.63;5031348;28;20450;-65
2021/01/03 10:52:57;;;;;;;6.18;4.88;;;;;;;6.78;52.32;100079.44;5016775;28;20057;-65
2021/01/03 10:55:24;;;;;;;6.05;5.18;;;;;;;6.86;51.67;100068.53;5022930;28;20061;-65
2021/01/03 10:57:56;;;;;;;5.63;4.60;;;;;;;6.90;51.76;100069.56;5031591;28;20064;-65
2021/01/03 11:00:24;;;;;;;5.95;4.80;;;;;;;6.94;51.72;100075.34;5031419;28;20053;-65
2021/01/03 11:02:51;;;;;;;8.77;5.38;;;;;;;6.98;51.29;100070.03;5027369;28;20060;-65
2021/01/03 11:05:19;;;;;;;7.15;5.38;;;;;;;7.01;51.22;100070.25;5031764;28;20053;-64
2021/01/03 11:07:46;;;;;;;6.20;5.13;;;;;;;7.00;51.03;100070.56;5027729;28;20048;-64
2021/01/03 11:10:14;;;;;;;5.25;4.38;;;;;;;7.10;51.55;100062.09;5030459;28;20054;-64
2021/01/03 11:12:41;;;;;;;5.18;4.47;;;;;;;7.14;51.43;100060.38;5029246;28;20506;-66
2021/01/03 11:15:10;;;;;;;6.15;4.40;;;;;;;7.17;51.66;100056.97;5028931;28;20045;-65
2021/01/03 11:17:37;;;;;;;7.25;4.60;;;;;;;7.21;51.50;100057.22;5029283;28;20049;-65
2021/01/03 11:20:05;;;;;;;5.50;4.32;;;;;;;7.27;51.09;100061.53;5032930;28;20049;-65
2021/01/03 11:22:35;;;;;;;5.47;4.32;;;;;;;7.38;50.81;100059.41;5032892;28;20064;-65
2021/01/03 11:25:02;;;;;;;;;;;;;;;7.43;51.06;100054.63;5020640;28;20053;-65
2021/01/03 11:27:28;;;;;;;5.22;3.95;;;;;;;7.43;50.59;100051.00;5012520;28;19921;-65
2021/01/03 11:29:58;;;;;;;5.75;4.05;;;;;;;7.47;50.51;100054.81;5013077;28;20054;-65
2021/01/03 11:32:27;;;;;;;5.80;4.05;;;;;;;7.52;50.39;100047.25;5027466;28;20049;-65
2021/01/03 11:34:54;;;;;;;6.57;4.78;;;;;;;7.62;50.02;100048.19;5032781;28;20049;-65
2021/01/03 11:37:24;;;;;;;6.95;4.70;;;;;;;7.50;49.74;100045.91;5030926;28;20072;-64
2021/01/03 11:39:52;;;;;;;5.22;4.30;;;;;;;7.57;50.35;100049.09;5032708;28;20086;-64
2021/01/03 11:42:25;;;;;;;6.80;4.60;;;;;;;7.62;50.40;100049.03;5034071;28;20053;-64
2021/01/03 11:44:52;;;;;;;7.50;4.90;;;;;;;7.64;50.34;100049.53;5033758;28;20398;-64